Time;durP1;ratioP1;P1;durP2;ratioP2;P2;SDS_P1;SDS_P2;PMS_P1;PMS_P2;Temp;Humidity;BMP_temperature;BMP_pressure;BME280_temperature;BME280_humidity;BME280_pressure;Samples;Min_cycle;Max_cycle;Signal;HPM_P1;HPM_P2
2024/03/27 00:01:57;;;;;;;;;8.25;7.00;;;;;;;;5028419;28;9631;-66
2024/03/27 00:04:23;;;;;;;;;6.75;6.50;;;;;;;;5029746;28;9568;-67
2024/03/27 00:06:48;;;;;;;;;10.00;9.00;;;;;;;;5029485;28;8827;-67
2024/03/27 00:09:13;;;;;;;;;9.25;9.00;;;;;;;;5029626;28;8792;-67
2024/03/27 00:11:40;;;;;;;;;12.00;10.00;;;;;;;;5029537;28;8783;-67
2024/03/27 00:14:05;;;;;;;;;11.00;11.00;;;;;;;;5029770;28;8796;-67
2024/03/27 00:16:30;;;;;;;;;10.50;10.00;;;;;;;;5042763;22;11629;-72
2024/03/27 00:18:55;;;;;;;;;9.75;9.00;;;;;;;;5028536;28;9587;-72
2024/03/27 00:21:21;;;;;;;;;11.25;11.25;;;;;;;;5028213;28;8833;-73
2024/03/27 00:23:46;;;;;;;;;10.00;10.00;;;;;;;;5032172;28;8818;-72
2024/03/27 00:26:12;;;;;;;;;13.25;11.00;;;;;;;;5033465;28;8819;-71
2024/03/27 00:28:37;;;;;;;;;12.25;10.75;;;;;;;;5033452;28;8788;-72
2024/03/27 00:31:06;;;;;;;;;14.50;11.00;;;;;;;;5033310;28;8818;-72
2024/03/27 00:33:31;;;;;;;;;14.50;13.00;;;;;;;;5032064;28;8791;-72
2024/03/27 00:35:56;;;;;;;;;14.00;12.25;;;;;;;;5032930;28;12327;-72
2024/03/27 00:38:22;;;;;;;;;13.25;11.00;;;;;;;;5033114;28;8820;-72
2024/03/27 00:40:48;;;;;;;;;12.75;10.00;;;;;;;;5031766;28;8810;-72
2024/03/27 00:43:14;;;;;;;;;11.00;9.00;;;;;;;;5033136;28;8792;-72
2024/03/27 00:45:39;;;;;;;;;10.50;10.50;;;;;;;;5033021;28;8816;-72
2024/03/27 00:48:04;;;;;;;;;10.00;10.00;;;;;;;;5033010;28;8799;-72
2024/03/27 00:50:30;;;;;;;;;8.50;8.50;;;;;;;;5031562;28;8808;-72
2024/03/27 00:52:55;;;;;;;;;13.00;10.75;;;;;;;;5032907;28;8911;-72
2024/03/27 00:55:20;;;;;;;;;13.75;9.00;;;;;;;;5032945;28;8804;-72
2024/03/27 00:57:45;;;;;;;;;10.00;10.00;;;;;;;;5032876;28;8865;-72
2024/03/27 01:00:11;;;;;;;;;9.25;9.25;;;;;;;;5032947;28;8783;-74
2024/03/27 01:02:36;;;;;;;;;13.00;11.00;;;;;;;;5033007;28;8776;-73
2024/03/27 01:05:02;;;;;;;;;11.00;10.00;;;;;;;;5032698;28;8824;-74
2024/03/27 01:07:27;;;;;;;;;11.00;11.00;;;;;;;;5032728;28;8787;-71
2024/03/27 01:09:53;;;;;;;;;14.50;11.00;;;;;;;;5032632;28;8788;-71
2024/03/27 01:12:18;;;;;;;;;10.00;9.75;;;;;;;;5031300;28;8816;-72
2024/03/27 01:14:43;;;;;;;;;9.00;8.50;;;;;;;;5033012;28;8772;-72
2024/03/27 01:17:09;;;;;;;;;9.75;9.75;;;;;;;;5031003;28;9593;-72
2024/03/27 01:19:34;;;;;;;;;11.00;9.00;;;;;;;;5030964;28;8850;-72
2024/03/27 01:22:00;;;;;;;;;10.00;10.00;;;;;;;;5032365;28;8792;-72
2024/03/27 01:24:25;;;;;;;;;10.25;8.50;;;;;;;;5032422;28;8881;-72
2024/03/27 01:26:50;;;;;;;;;9.00;9.00;;;;;;;;5032375;28;8812;-72
2024/03/27 01:29:16;;;;;;;;;13.00;10.00;;;;;;;;5032242;28;8984;-72
2024/03/27 01:31:41;;;;;;;;;13.00;10.75;;;;;;;;5031013;28;8843;-72
2024/03/27 01:34:06;;;;;;;;;11.00;10.00;;;;;;;;5031952;28;8780;-72
2024/03/27 01:36:31;;;;;;;;;9.50;9.50;;;;;;;;5032095;28;9526;-72
2024/03/27 01:38:57;;;;;;;;;9.00;9.00;;;;;;;;5032293;28;8784;-72
2024/03/27 01:41:22;;;;;;;;;13.00;10.75;;;;;;;;5031853;28;8838;-72
2024/03/27 01:43:47;;;;;;;;;13.00;8.00;;;;;;;;5032063;28;8776;-72
2024/03/27 01:46:13;;;;;;;;;13.50;10.00;;;;;;;;5031904;28;8827;-72
2024/03/27 01:48:40;;;;;;;;;11.50;7.50;;;;;;;;5030401;28;8838;-72
2024/03/27 01:51:07;;;;;;;;;12.50;9.25;;;;;;;;5031735;28;11457;-72
2024/03/27 01:53:32;;;;;;;;;9.25;9.25;;;;;;;;5030416;28;11548;-73
2024/03/27 01:55:57;;;;;;;;;10.00;10.00;;;;;;;;5031737;28;11483;-73
2024/03/27 01:58:23;;;;;;;;;9.75;8.50;;;;;;;;5031782;28;8914;-73
2024/03/27 02:00:49;;;;;;;;;12.25;9.00;;;;;;;;5031611;28;8822;-73
2024/03/27 02:03:14;;;;;;;;;11.00;10.00;;;;;;;;5031426;28;8764;-73
2024/03/27 02:05:40;;;;;;;;;9.75;8.50;;;;;;;;5031636;28;8913;-72
2024/03/27 02:08:06;;;;;;;;;8.00;7.50;;;;;;;;5031495;28;8788;-72
2024/03/27 02:10:31;;;;;;;;;11.25;10.00;;;;;;;;5031405;28;8787;-73
2024/03/27 02:12:56;;;;;;;;;7.50;7.50;;;;;;;;5031259;28;11593;-73
2024/03/27 02:15:22;;;;;;;;;12.50;9.00;;;;;;;;5030426;28;8816;-73
2024/03/27 02:17:47;;;;;;;;;7.50;5.75;;;;;;;;5031568;28;8796;-73
2024/03/27 02:20:12;;;;;;;;;10.00;8.50;;;;;;;;5031633;28;8894;-72
2024/03/27 02:22:38;;;;;;;;;11.50;8.25;;;;;;;;5031748;28;8926;-73
2024/03/27 02:25:09;;;;;;;;;11.00;7.00;;;;;;;;5031688;28;8920;-73
2024/03/27 02:27:35;;;;;;;;;9.75;9.75;;;;;;;;5031492;28;8783;-72
2024/03/27 02:30:00;;;;;;;;;9.00;7.00;;;;;;;;5031055;28;11472;-71
2024/03/27 02:32:25;;;;;;;;;6.75;6.75;;;;;;;;5029615;28;8812;-72
2024/03/27 02:34:50;;;;;;;;;12.50;10.75;;;;;;;;5030961;28;8858;-72
2024/03/27 02:37:16;;;;;;;;;10.25;8.00;;;;;;;;5031103;28;8910;-72
2024/03/27 02:39:41;;;;;;;;;10.00;9.00;;;;;;;;5030890;28;8795;-72
2024/03/27 02:42:06;;;;;;;;;10.75;7.50;;;;;;;;5029645;28;8796;-72
2024/03/27 02:44:31;;;;;;;;;12.25;10.25;;;;;;;;5030374;28;8925;-72
2024/03/27 02:46:57;;;;;;;;;10.50;10.00;;;;;;;;5030648;28;8824;-72
2024/03/27 02:49:22;;;;;;;;;10.75;9.75;;;;;;;;5029415;28;8854;-72
2024/03/27 02:51:47;;;;;;;;;11.25;10.25;;;;;;;;5030870;28;8812;-72
2024/03/27 02:54:12;;;;;;;;;12.50;9.00;;;;;;;;5030990;28;8901;-72
2024/03/27 02:56:38;;;;;;;;;9.50;7.50;;;;;;;;5030723;28;8824;-72
2024/03/27 02:59:03;;;;;;;;;10.00;9.50;;;;;;;;5030629;28;8784;-72
2024/03/27 03:01:29;;;;;;;;;6.50;6.25;;;;;;;;5030996;28;8948;-72
2024/03/27 03:03:54;;;;;;;;;11.00;9.25;;;;;;;;5030711;28;8799;-72
2024/03/27 03:06:20;;;;;;;;;9.00;9.00;;;;;;;;5030678;28;8958;-72
2024/03/27 03:08:46;;;;;;;;;9.50;8.50;;;;;;;;5030578;28;8821;-72
2024/03/27 03:11:11;;;;;;;;;9.50;7.00;;;;;;;;5030357;28;11488;-72
2024/03/27 03:13:36;;;;;;;;;14.00;10.00;;;;;;;;5030486;28;8776;-72
2024/03/27 03:16:02;;;;;;;;;10.75;6.50;;;;;;;;5030839;28;8823;-73
2024/03/27 03:18:27;;;;;;;;;10.00;10.00;;;;;;;;5030254;28;8796;-72
2024/03/27 03:21:05;;;;;;;;;8.50;8.00;;;;;;;;5030148;28;8893;-72
2024/03/27 03:23:30;;;;;;;;;10.25;9.25;;;;;;;;5030365;28;8788;-72
2024/03/27 03:25:55;;;;;;;;;13.00;11.00;;;;;;;;5030104;28;11537;-72
2024/03/27 03:28:21;;;;;;;;;11.50;9.00;;;;;;;;5030310;28;8938;-72
2024/03/27 03:30:46;;;;;;;;;11.50;10.50;;;;;;;;5030113;28;8799;-72
2024/03/27 03:33:12;;;;;;;;;14.75;13.25;;;;;;;;5030348;28;8784;-71
2024/03/27 03:35:37;;;;;;;;;12.50;10.50;;;;;;;;5030266;28;8792;-73
2024/03/27 03:38:03;;;;;;;;;10.75;10.75;;;;;;;;5030105;28;8918;-71
2024/03/27 03:40:28;;;;;;;;;14.50;10.25;;;;;;;;5030067;28;8800;-71
2024/03/27 03:42:54;;;;;;;;;11.00;10.00;;;;;;;;5030137;28;8814;-72
2024/03/27 03:45:19;;;;;;;;;10.50;9.50;;;;;;;;5029888;28;8860;-71
2024/03/27 03:47:45;;;;;;;;;12.00;9.25;;;;;;;;5030184;28;11552;-71
2024/03/27 03:50:10;;;;;;;;;10.00;10.00;;;;;;;;5028837;28;8894;-74
2024/03/27 03:52:35;;;;;;;;;16.50;15.00;;;;;;;;5029980;28;8826;-71
2024/03/27 03:55:00;;;;;;;;;14.25;12.00;;;;;;;;5029842;28;8780;-72
2024/03/27 03:57:26;;;;;;;;;11.50;10.00;;;;;;;;5031727;28;8961;-72
2024/03/27 03:59:51;;;;;;;;;14.50;14.25;;;;;;;;5034009;28;8804;-72
2024/03/27 04:02:16;;;;;;;;;17.75;14.25;;;;;;;;5033903;28;8873;-72
2024/03/27 04:04:41;;;;;;;;;14.00;13.75;;;;;;;;5034056;28;8788;-71
2024/03/27 04:07:07;;;;;;;;;18.00;15.00;;;;;;;;5033837;28;8938;-72
2024/03/27 04:09:32;;;;;;;;;15.75;15.75;;;;;;;;5033762;28;8802;-72
2024/03/27 04:11:57;;;;;;;;;23.00;16.25;;;;;;;;5033797;28;8788;-72
2024/03/27 04:14:23;;;;;;;;;18.25;17.25;;;;;;;;5033633;28;9534;-72
2024/03/27 04:16:48;;;;;;;;;18.00;15.00;;;;;;;;5034125;28;8866;-72
2024/03/27 04:19:13;;;;;;;;;18.00;15.25;;;;;;;;5033493;28;8791;-72
2024/03/27 04:21:38;;;;;;;;;18.00;16.25;;;;;;;;5033558;28;8811;-71
2024/03/27 04:24:04;;;;;;;;;20.00;18.25;;;;;;;;5036091;28;8894;-71
2024/03/27 04:26:29;;;;;;;;;15.75;15.25;;;;;;;;5053348;28;8849;-71
2024/03/27 04:28:55;;;;;;;;;15.50;15.50;;;;;;;;5052130;28;8797;-71
2024/03/27 04:31:20;;;;;;;;;18.25;17.50;;;;;;;;5053227;28;8904;-71
2024/03/27 04:33:45;;;;;;;;;18.00;17.50;;;;;;;;5052012;28;8909;-72
2024/03/27 04:36:11;;;;;;;;;22.00;20.50;;;;;;;;5053240;28;8967;-72
2024/03/27 04:38:36;;;;;;;;;22.00;21.75;;;;;;;;5053251;28;8790;-72
2024/03/27 04:41:09;;;;;;;;;25.50;24.00;;;;;;;;5053009;28;8801;-72
2024/03/27 04:43:34;;;;;;;;;18.50;18.00;;;;;;;;5053074;28;8916;-72
2024/03/27 04:45:59;;;;;;;;;15.50;14.25;;;;;;;;5052826;28;12439;-72
2024/03/27 04:48:25;;;;;;;;;19.50;18.50;;;;;;;;5053299;28;8906;-72
2024/03/27 04:50:50;;;;;;;;;21.25;17.50;;;;;;;;5053148;28;8793;-71
2024/03/27 04:53:16;;;;;;;;;19.50;19.00;;;;;;;;5053254;28;8805;-72
2024/03/27 04:55:41;;;;;;;;;23.25;20.00;;;;;;;;5052869;28;8817;-72
2024/03/27 04:58:07;;;;;;;;;25.50;19.75;;;;;;;;5052810;28;8804;-72
2024/03/27 05:00:32;;;;;;;;;26.25;22.75;;;;;;;;5052525;28;8793;-72
2024/03/27 05:02:57;;;;;;;;;19.25;19.25;;;;;;;;5052680;28;8785;-72
2024/03/27 05:05:23;;;;;;;;;22.50;22.00;;;;;;;;5052476;28;8829;-72
2024/03/27 05:07:48;;;;;;;;;26.25;22.00;;;;;;;;5052119;28;8805;-72
2024/03/27 05:10:13;;;;;;;;;19.00;19.00;;;;;;;;5052509;28;8785;-72
2024/03/27 05:12:39;;;;;;;;;19.25;17.25;;;;;;;;5052536;28;8992;-72
2024/03/27 05:15:05;;;;;;;;;20.00;18.00;;;;;;;;5052759;28;8809;-72
2024/03/27 05:17:30;;;;;;;;;18.25;17.00;;;;;;;;5052450;28;8801;-71
2024/03/27 05:19:55;;;;;;;;;20.00;17.50;;;;;;;;5052398;28;8816;-71
2024/03/27 05:22:27;;;;;;;;;19.50;19.50;;;;;;;;5052358;28;8769;-71
2024/03/27 05:24:52;;;;;;;;;21.75;18.00;;;;;;;;5052449;28;8827;-71
2024/03/27 05:27:18;;;;;;;;;21.50;19.00;;;;;;;;5052184;28;11500;-71
2024/03/27 05:29:44;;;;;;;;;22.00;18.25;;;;;;;;5052517;28;8805;-71
2024/03/27 05:32:09;;;;;;;;;21.00;19.25;;;;;;;;5052253;28;8813;-73
2024/03/27 05:34:35;;;;;;;;;22.25;22.25;;;;;;;;5050912;28;8816;-72
2024/03/27 05:37:00;;;;;;;;;19.50;18.75;;;;;;;;5052006;28;8805;-72
2024/03/27 05:39:25;;;;;;;;;23.25;21.00;;;;;;;;5031814;28;8792;-72
2024/03/27 05:41:52;;;;;;;;;21.75;21.75;;;;;;;;5032060;28;8915;-72
2024/03/27 05:44:17;;;;;;;;;25.25;20.25;;;;;;;;5031874;28;8822;-73
2024/03/27 05:46:45;;;;;;;;;21.75;18.50;;;;;;;;5031770;28;12250;-73
2024/03/27 05:49:10;;;;;;;;;26.00;23.00;;;;;;;;5031891;28;8926;-72
2024/03/27 05:51:39;;;;;;;;;26.25;22.75;;;;;;;;5031860;28;11528;-72
2024/03/27 05:54:04;;;;;;;;;21.00;19.00;;;;;;;;5034645;28;8896;-72
2024/03/27 05:56:30;;;;;;;;;21.50;20.75;;;;;;;;5050071;28;11648;-74
2024/03/27 05:58:55;;;;;;;;;26.75;23.50;;;;;;;;5039723;28;8808;-69
2024/03/27 06:01:21;;;;;;;;;21.50;18.75;;;;;;;;5030528;28;8800;-74
2024/03/27 06:03:49;;;;;;;;;27.00;23.00;;;;;;;;5031780;28;8792;-76
2024/03/27 06:06:15;;;;;;;;;18.00;14.00;;;;;;;;5031727;28;8816;-75
2024/03/27 06:08:40;;;;;;;;;26.50;23.00;;;;;;;;5031676;28;11509;-79
2024/03/27 06:11:05;;;;;;;;;23.00;22.00;;;;;;;;5031424;28;9610;-74
2024/03/27 06:13:31;;;;;;;;;26.00;22.00;;;;;;;;5031326;28;8898;-75
2024/03/27 06:15:56;;;;;;;;;29.25;25.50;;;;;;;;5031912;28;8827;-75
2024/03/27 06:18:21;;;;;;;;;25.75;22.25;;;;;;;;5031464;28;8791;-69
2024/03/27 06:20:47;;;;;;;;;28.00;24.50;;;;;;;;5030747;28;8808;-71
2024/03/27 06:23:12;;;;;;;;;19.75;18.50;;;;;;;;5030236;28;9554;-69
2024/03/27 06:25:38;;;;;;;;;26.75;23.75;;;;;;;;5046420;28;8817;-71
2024/03/27 06:28:03;;;;;;;;;22.75;20.50;;;;;;;;5040200;28;9628;-75
2024/03/27 06:30:30;;;;;;;;;24.50;22.25;;;;;;;;5029907;28;8828;-73
2024/03/27 06:32:55;;;;;;;;;23.00;21.00;;;;;;;;5031208;28;8772;-75
2024/03/27 06:35:22;;;;;;;;;22.50;20.00;;;;;;;;5029405;28;11570;-73
2024/03/27 06:37:47;;;;;;;;;23.25;22.50;;;;;;;;5026426;28;9628;-73
2024/03/27 06:40:14;;;;;;;;;17.25;14.50;;;;;;;;5030671;28;11523;-73
2024/03/27 06:42:39;;;;;;;;;29.25;24.75;;;;;;;;5031020;28;8830;-74
2024/03/27 06:45:05;;;;;;;;;26.00;20.50;;;;;;;;5030768;28;11516;-71
2024/03/27 06:47:31;;;;;;;;;17.50;16.75;;;;;;;;5031039;28;8910;-73
2024/03/27 06:49:56;;;;;;;;;14.00;14.00;;;;;;;;5030913;28;8800;-72
2024/03/27 06:52:21;;;;;;;;;14.50;13.00;;;;;;;;5029399;28;8815;-72
2024/03/27 06:54:48;;;;;;;;;18.75;13.75;;;;;;;;5039151;28;8840;-73
2024/03/27 06:57:13;;;;;;;;;13.00;8.00;;;;;;;;5021038;28;8841;-71
2024/03/27 06:59:39;;;;;;;;;13.25;10.25;;;;;;;;5030640;28;11478;-74
2024/03/27 07:02:05;;;;;;;;;14.50;12.00;;;;;;;;5030846;28;8923;-69
2024/03/27 07:04:30;;;;;;;;;10.50;9.75;;;;;;;;5030325;28;8800;-70
2024/03/27 07:06:55;;;;;;;;;13.75;7.00;;;;;;;;5029889;28;12280;-70
2024/03/27 07:09:21;;;;;;;;;10.25;8.50;;;;;;;;5030745;28;8878;-67
2024/03/27 07:11:46;;;;;;;;;7.00;7.00;;;;;;;;5027438;28;8820;-69
2024/03/27 07:14:11;;;;;;;;;9.50;9.25;;;;;;;;5030879;28;8784;-75
2024/03/27 07:16:37;;;;;;;;;9.00;6.50;;;;;;;;5029348;28;8848;-74
2024/03/27 07:19:02;;;;;;;;;10.00;10.00;;;;;;;;5030748;28;8800;-72
2024/03/27 07:21:27;;;;;;;;;23.50;15.50;;;;;;;;5026318;28;8826;-72
2024/03/27 07:23:53;;;;;;;;;16.50;15.00;;;;;;;;5021669;28;8814;-72
2024/03/27 07:26:18;;;;;;;;;19.50;15.25;;;;;;;;5019474;28;9542;-72
2024/03/27 07:28:43;;;;;;;;;19.00;18.50;;;;;;;;5024185;28;8788;-69
2024/03/27 07:31:08;;;;;;;;;31.00;25.25;;;;;;;;5030318;28;8834;-69
2024/03/27 07:33:33;;;;;;;;;25.50;20.75;;;;;;;;5030495;28;8914;-70
2024/03/27 07:35:59;;;;;;;;;40.25;33.50;;;;;;;;5030395;28;8921;-69
2024/03/27 07:38:24;;;;;;;;;36.25;34.00;;;;;;;;5030471;28;8902;-70
2024/03/27 07:40:50;;;;;;;;;38.50;31.75;;;;;;;;5026913;28;8798;-71
2024/03/27 07:43:15;;;;;;;;;29.75;25.75;;;;;;;;5030280;28;8877;-69
2024/03/27 07:45:41;;;;;;;;;16.25;15.75;;;;;;;;5028066;28;8852;-70
2024/03/27 07:48:06;;;;;;;;;10.25;10.00;;;;;;;;5009350;28;8821;-71
2024/03/27 07:50:32;;;;;;;;;15.50;13.25;;;;;;;;5010485;28;8814;-72
2024/03/27 07:52:57;;;;;;;;;12.75;9.75;;;;;;;;5010666;28;8783;-74
2024/03/27 07:55:22;;;;;;;;;12.00;7.00;;;;;;;;5036976;28;8808;-76
2024/03/27 07:57:48;;;;;;;;;7.00;5.00;;;;;;;;5048814;28;8801;-72
2024/03/27 08:00:13;;;;;;;;;8.50;7.00;;;;;;;;5050167;28;8781;-69
2024/03/27 08:02:39;;;;;;;;;3.50;2.00;;;;;;;;5050196;28;8817;-71
2024/03/27 08:05:05;;;;;;;;;6.25;3.00;;;;;;;;5048946;28;8812;-71
2024/03/27 08:07:30;;;;;;;;;3.00;2.00;;;;;;;;5050040;28;8777;-70
2024/03/27 08:09:56;;;;;;;;;3.00;1.00;;;;;;;;5049928;28;11461;-70
2024/03/27 08:12:21;;;;;;;;;2.25;2.00;;;;;;;;5049922;28;8893;-70
2024/03/27 08:14:46;;;;;;;;;0.25;0.25;;;;;;;;5050122;28;8948;-70
2024/03/27 08:17:11;;;;;;;;;2.75;1.00;;;;;;;;5050262;28;8833;-70
2024/03/27 08:19:40;;;;;;;;;2.00;0.00;;;;;;;;5050072;28;8798;-70
2024/03/27 08:22:08;;;;;;;;;0.25;0.00;;;;;;;;5038111;28;8896;-70
2024/03/27 08:24:33;;;;;;;;;0.00;0.00;;;;;;;;5021420;28;11460;-71
2024/03/27 08:27:00;;;;;;;;;1.25;1.25;;;;;;;;5020394;28;11513;-71
2024/03/27 08:29:25;;;;;;;;;1.25;1.00;;;;;;;;5020724;28;8788;-72
2024/03/27 08:31:50;;;;;;;;;1.50;1.00;;;;;;;;5019322;28;11552;-71
2024/03/27 08:34:15;;;;;;;;;1.25;0.00;;;;;;;;5021239;28;8796;-70
2024/03/27 08:36:41;;;;;;;;;1.00;0.00;;;;;;;;5029955;28;8815;-69
2024/03/27 08:39:09;;;;;;;;;1.50;0.00;;;;;;;;5029755;28;8799;-73
2024/03/27 08:41:35;;;;;;;;;1.00;0.00;;;;;;;;5022255;28;8806;-77
2024/03/27 08:44:03;;;;;;;;;0.00;0.00;;;;;;;;5011306;28;11507;-74
2024/03/27 08:46:28;;;;;;;;;1.00;0.00;;;;;;;;5016190;28;8857;-74
2024/03/27 08:48:54;;;;;;;;;7.00;6.25;;;;;;;;5013507;28;11405;-69
2024/03/27 08:51:20;;;;;;;;;15.50;13.50;;;;;;;;5012268;28;8898;-72
2024/03/27 08:53:46;;;;;;;;;9.00;7.00;;;;;;;;5013259;28;11549;-77
2024/03/27 08:56:12;;;;;;;;;10.75;10.00;;;;;;;;5023892;28;8834;-75
2024/03/27 08:58:37;;;;;;;;;5.50;4.25;;;;;;;;5021731;28;11526;-74
2024/03/27 09:01:02;;;;;;;;;3.50;3.50;;;;;;;;5022606;28;8892;-75
2024/03/27 09:03:27;;;;;;;;;2.00;2.00;;;;;;;;5021929;28;9588;-76
2024/03/27 09:05:53;;;;;;;;;1.00;1.00;;;;;;;;5023832;28;8844;-75
2024/03/27 09:08:18;;;;;;;;;4.75;2.00;;;;;;;;5022497;28;8796;-80
2024/03/27 09:10:43;;;;;;;;;1.25;1.00;;;;;;;;5031322;28;8902;-70
2024/03/27 09:13:08;;;;;;;;;1.00;1.00;;;;;;;;5030032;28;9966;-69
2024/03/27 09:15:34;;;;;;;;;2.00;1.00;;;;;;;;5033087;28;8827;-77
2024/03/27 09:18:01;;;;;;;;;2.00;2.00;;;;;;;;5031344;28;8819;-77
2024/03/27 09:20:26;;;;;;;;;5.00;3.75;;;;;;;;5031067;28;8823;-75
2024/03/27 09:22:51;;;;;;;;;3.75;3.75;;;;;;;;5030743;28;11460;-75
2024/03/27 09:25:17;;;;;;;;;6.50;6.50;;;;;;;;5043908;28;8926;-75
2024/03/27 09:27:42;;;;;;;;;2.00;2.00;;;;;;;;5052036;28;8777;-74
2024/03/27 09:30:07;;;;;;;;;4.00;3.75;;;;;;;;5052284;28;9519;-75
2024/03/27 09:32:33;;;;;;;;;0.50;0.00;;;;;;;;5052270;28;8789;-75
2024/03/27 09:34:58;;;;;;;;;2.75;0.00;;;;;;;;5052308;28;8801;-75
2024/03/27 09:37:23;;;;;;;;;1.00;0.75;;;;;;;;5052342;28;8785;-75
2024/03/27 09:39:48;;;;;;;;;1.00;1.00;;;;;;;;5052595;28;8800;-75
2024/03/27 09:42:15;;;;;;;;;0.00;0.00;;;;;;;;5052574;28;8777;-75
2024/03/27 09:44:40;;;;;;;;;2.00;0.00;;;;;;;;5052484;28;9495;-73
2024/03/27 09:47:06;;;;;;;;;2.00;1.00;;;;;;;;5052309;28;11441;-73
2024/03/27 09:49:32;;;;;;;;;0.00;0.00;;;;;;;;5052439;28;8840;-74
2024/03/27 09:51:58;;;;;;;;;1.00;1.00;;;;;;;;5052289;28;8781;-73
2024/03/27 09:54:28;;;;;;;;;0.00;0.00;;;;;;;;5052130;28;11471;-74
2024/03/27 09:56:53;;;;;;;;;3.00;1.00;;;;;;;;5050918;28;8812;-74
2024/03/27 09:59:19;;;;;;;;;1.00;1.00;;;;;;;;5052106;28;11497;-74
2024/03/27 10:01:44;;;;;;;;;0.00;0.00;;;;;;;;5050979;28;8797;-73
2024/03/27 10:04:09;;;;;;;;;2.50;1.00;;;;;;;;5052142;28;8785;-73
2024/03/27 10:06:34;;;;;;;;;1.00;0.00;;;;;;;;5051962;28;8825;-73
2024/03/27 10:09:00;;;;;;;;;1.50;0.00;;;;;;;;5052206;28;8900;-73
2024/03/27 10:11:25;;;;;;;;;1.00;1.00;;;;;;;;5050590;28;8777;-73
2024/03/27 10:13:50;;;;;;;;;3.25;2.50;;;;;;;;5051903;28;8777;-73
2024/03/27 10:16:17;;;;;;;;;2.75;2.75;;;;;;;;5052236;28;8914;-73
2024/03/27 10:18:42;;;;;;;;;1.00;1.00;;;;;;;;5050470;28;8840;-73
2024/03/27 10:21:08;;;;;;;;;0.00;0.00;;;;;;;;5050345;28;11413;-73
2024/03/27 10:23:34;;;;;;;;;0.00;0.00;;;;;;;;5051764;28;8885;-73
2024/03/27 10:26:03;;;;;;;;;0.00;0.00;;;;;;;;5051552;28;8841;-72
2024/03/27 10:28:31;;;;;;;;;0.00;0.00;;;;;;;;5051529;28;11487;-72
2024/03/27 10:30:57;;;;;;;;;0.00;0.00;;;;;;;;5051485;28;11470;-72
2024/03/27 10:33:22;;;;;;;;;0.75;0.00;;;;;;;;5051461;28;11388;-73
2024/03/27 10:35:50;;;;;;;;;0.00;0.00;;;;;;;;5051331;28;11501;-73
2024/03/27 10:38:16;;;;;;;;;0.00;0.00;;;;;;;;5051369;28;8986;-72
2024/03/27 10:40:42;;;;;;;;;0.00;0.00;;;;;;;;5051351;28;11497;-73
2024/03/27 10:43:26;;;;;;;;;0.00;0.00;;;;;;;;5051555;28;8781;-73
2024/03/27 10:45:52;;;;;;;;;0.00;0.00;;;;;;;;5051191;28;11419;-73
2024/03/27 10:48:18;;;;;;;;;1.75;0.00;;;;;;;;5051013;28;11377;-73
2024/03/27 10:50:45;;;;;;;;;0.00;0.00;;;;;;;;5051116;28;11418;-73
2024/03/27 10:53:11;;;;;;;;;0.00;0.00;;;;;;;;5051263;28;8793;-73
2024/03/27 10:55:37;;;;;;;;;0.00;0.00;;;;;;;;5051151;28;11400;-73
2024/03/27 10:58:03;;;;;;;;;1.00;0.00;;;;;;;;5049883;28;11411;-73
2024/03/27 11:00:28;;;;;;;;;1.00;1.00;;;;;;;;5051220;28;8820;-73
2024/03/27 11:02:54;;;;;;;;;2.00;1.00;;;;;;;;5050799;28;12221;-73
2024/03/27 11:05:19;;;;;;;;;0.00;0.00;;;;;;;;5050552;28;8983;-73
2024/03/27 11:07:48;;;;;;;;;1.00;0.50;;;;;;;;5050909;28;9003;-73
2024/03/27 11:10:21;;;;;;;;;0.75;0.75;;;;;;;;5051014;28;8785;-72
2024/03/27 11:12:48;;;;;;;;;0.00;0.00;;;;;;;;5050892;28;11384;-73
2024/03/27 11:15:14;;;;;;;;;0.00;0.00;;;;;;;;5050864;28;11391;-72
2024/03/27 11:17:39;;;;;;;;;0.00;0.00;;;;;;;;5051249;28;11492;-73
2024/03/27 11:20:05;;;;;;;;;0.50;0.50;;;;;;;;5050691;28;8777;-73
2024/03/27 11:22:31;;;;;;;;;1.25;0.00;;;;;;;;5050757;28;8786;-73
2024/03/27 11:24:56;;;;;;;;;2.00;2.00;;;;;;;;5050553;28;11449;-74
2024/03/27 11:27:28;;;;;;;;;0.25;0.25;;;;;;;;5050605;28;8935;-74
2024/03/27 11:29:54;;;;;;;;;0.00;0.00;;;;;;;;5050381;28;8831;-74
2024/03/27 11:32:19;;;;;;;;;1.00;1.00;;;;;;;;5050570;28;12118;-71
2024/03/27 11:34:45;;;;;;;;;2.00;1.00;;;;;;;;5035749;28;8816;-72
2024/03/27 11:37:10;;;;;;;;;2.00;0.00;;;;;;;;5030622;28;8803;-70
2024/03/27 11:39:35;;;;;;;;;1.00;0.00;;;;;;;;5030498;28;8842;-70
2024/03/27 11:42:00;;;;;;;;;0.00;0.00;;;;;;;;5030141;28;8808;-68
2024/03/27 11:44:26;;;;;;;;;0.00;0.00;;;;;;;;5030462;28;9491;-69
2024/03/27 11:46:51;;;;;;;;;0.00;0.00;;;;;;;;5030650;28;8934;-69
2024/03/27 11:49:16;;;;;;;;;0.00;0.00;;;;;;;;5030304;28;8826;-69
2024/03/27 11:51:42;;;;;;;;;0.00;0.00;;;;;;;;5030376;28;8796;-68
2024/03/27 11:54:07;;;;;;;;;0.00;0.00;;;;;;;;5033554;28;8797;-71
2024/03/27 11:56:33;;;;;;;;;0.00;0.00;;;;;;;;5050281;28;8816;-70
2024/03/27 11:58:59;;;;;;;;;1.50;1.50;;;;;;;;5050176;28;8797;-72
2024/03/27 12:01:25;;;;;;;;;0.00;0.00;;;;;;;;5048811;28;11499;-75
2024/03/27 12:03:51;;;;;;;;;0.00;0.00;;;;;;;;5027253;28;8827;-74
2024/03/27 12:06:17;;;;;;;;;2.00;2.00;;;;;;;;5020356;28;8932;-75
2024/03/27 12:08:43;;;;;;;;;2.00;1.00;;;;;;;;5018703;28;8817;-75
2024/03/27 12:11:08;;;;;;;;;2.25;2.25;;;;;;;;5018717;28;11495;-73
2024/03/27 12:13:36;;;;;;;;;1.00;1.00;;;;;;;;5030002;28;8822;-73
2024/03/27 12:16:02;;;;;;;;;0.75;0.00;;;;;;;;5017344;28;8846;-74
2024/03/27 12:18:28;;;;;;;;;0.50;0.50;;;;;;;;5021880;28;11465;-71
2024/03/27 12:20:53;;;;;;;;;1.50;1.50;;;;;;;;5023789;28;9569;-71
2024/03/27 12:23:19;;;;;;;;;3.50;1.00;;;;;;;;5015451;28;10957;-73
2024/03/27 12:25:45;;;;;;;;;0.75;0.00;;;;;;;;5046455;28;8944;-73
2024/03/27 12:28:10;;;;;;;;;2.00;1.00;;;;;;;;5053664;28;8789;-74
2024/03/27 12:30:38;;;;;;;;;2.00;2.00;;;;;;;;5053768;28;11441;-74
2024/03/27 12:33:04;;;;;;;;;1.00;1.00;;;;;;;;5048646;28;8919;-73
2024/03/27 12:35:29;;;;;;;;;1.00;1.00;;;;;;;;5022468;28;11638;-73
2024/03/27 12:37:55;;;;;;;;;4.50;2.75;;;;;;;;5022666;28;8902;-72
2024/03/27 12:40:20;;;;;;;;;2.00;2.00;;;;;;;;5021562;28;8920;-72
2024/03/27 12:42:46;;;;;;;;;0.00;0.00;;;;;;;;5019851;28;8818;-73
2024/03/27 17:14:11;;;;;;;;;1.25;1.25;;;;;;;;5105254;27;13397;-70
2024/03/27 17:16:36;;;;;;;;;0.00;0.00;;;;;;;;5105155;28;11497;-70
2024/03/27 17:19:01;;;;;;;;;2.00;0.00;;;;;;;;5106634;28;8838;-70
2024/03/27 17:21:27;;;;;;;;;0.00;0.00;;;;;;;;5107805;28;8878;-72
2024/03/27 17:23:52;;;;;;;;;2.00;2.00;;;;;;;;5107799;27;8807;-71
2024/03/27 17:26:17;;;;;;;;;2.00;2.00;;;;;;;;5125992;27;8794;-76
2024/03/27 17:28:43;;;;;;;;;1.50;0.00;;;;;;;;5127334;27;8846;-75
2024/03/27 17:31:08;;;;;;;;;1.00;0.50;;;;;;;;5129793;27;8812;-80
2024/03/27 17:33:33;;;;;;;;;1.25;0.50;;;;;;;;5128958;27;8800;-77
2024/03/27 17:35:58;;;;;;;;;3.00;1.00;;;;;;;;5128195;27;8923;-75
2024/03/27 17:38:24;;;;;;;;;64.00;46.67;;;;;;;;5127402;27;8835;-77
2024/03/27 17:40:49;;;;;;;;;53.00;40.33;;;;;;;;5127696;27;8789;-73
2024/03/27 17:43:14;;;;;;;;;52.50;41.75;;;;;;;;5128387;27;8789;-69
2024/03/27 17:45:40;;;;;;;;;21.50;21.00;;;;;;;;5127257;27;8773;-73
2024/03/27 17:48:05;;;;;;;;;4.75;4.75;;;;;;;;5120049;28;8788;-74
2024/03/27 17:50:30;;;;;;;;;3.25;3.25;;;;;;;;5104409;28;8906;-74
2024/03/27 17:52:56;;;;;;;;;2.25;2.25;;;;;;;;5104133;28;8842;-74
2024/03/27 17:55:22;;;;;;;;;4.00;2.00;;;;;;;;5112999;27;8821;-73
2024/03/27 17:57:47;;;;;;;;;2.75;2.00;;;;;;;;5111398;27;11472;-74
2024/03/27 18:00:12;;;;;;;;;3.25;2.00;;;;;;;;5115369;27;8872;-75
2024/03/27 18:02:39;;;;;;;;;2.00;2.00;;;;;;;;5116725;27;8792;-75
2024/03/27 18:05:05;;;;;;;;;4.75;3.00;;;;;;;;5116879;27;8807;-76
2024/03/27 18:07:30;;;;;;;;;3.00;3.00;;;;;;;;5111033;28;11449;-75
2024/03/27 18:09:55;;;;;;;;;4.00;4.00;;;;;;;;5116603;27;11424;-75
2024/03/27 18:12:21;;;;;;;;;4.50;4.00;;;;;;;;5114965;27;8813;-78
2024/03/27 18:14:47;;;;;;;;;7.00;4.00;;;;;;;;5118295;27;8806;-76
2024/03/27 18:17:12;;;;;;;;;7.00;4.00;;;;;;;;5110890;27;8809;-76
2024/03/27 18:19:37;;;;;;;;;6.50;2.00;;;;;;;;5116539;27;8779;-76
2024/03/27 18:22:03;;;;;;;;;2.75;2.75;;;;;;;;5116977;27;8918;-76
2024/03/27 18:24:29;;;;;;;;;2.00;2.00;;;;;;;;5105358;27;8893;-76
2024/03/27 18:26:54;;;;;;;;;3.25;2.50;;;;;;;;5097747;28;8794;-71
2024/03/27 18:29:19;;;;;;;;;1.75;1.75;;;;;;;;5106901;28;8777;-74
2024/03/27 18:31:44;;;;;;;;;2.00;2.00;;;;;;;;5082243;28;9564;-83
2024/03/27 18:34:09;;;;;;;;;2.00;2.00;;;;;;;;5088450;28;8852;-80
2024/03/27 18:36:35;;;;;;;;;2.25;2.00;;;;;;;;5083944;28;8838;-73
2024/03/27 18:39:00;;;;;;;;;4.00;4.00;;;;;;;;5098762;28;8811;-73
2024/03/27 18:41:25;;;;;;;;;3.00;3.00;;;;;;;;5084304;28;8850;-77
2024/03/27 18:43:50;;;;;;;;;5.00;3.75;;;;;;;;5087340;28;8931;-78
2024/03/27 18:46:16;;;;;;;;;3.25;3.25;;;;;;;;5092929;28;8780;-76
2024/03/27 18:48:41;;;;;;;;;3.00;3.00;;;;;;;;5092347;28;8811;-76
2024/03/27 18:51:06;;;;;;;;;5.25;3.00;;;;;;;;5092680;28;9690;-76
2024/03/27 18:53:31;;;;;;;;;4.00;3.75;;;;;;;;5092645;28;8840;-79
2024/03/27 18:55:57;;;;;;;;;5.50;3.00;;;;;;;;5111137;28;8812;-76
2024/03/27 18:58:22;;;;;;;;;4.00;3.50;;;;;;;;5112518;28;9612;-75
2024/03/27 19:00:47;;;;;;;;;5.00;5.00;;;;;;;;5095121;28;8894;-75
2024/03/27 19:03:12;;;;;;;;;4.00;4.00;;;;;;;;5091270;28;8824;-74